Time;durP1;ratioP1;P1;durP2;ratioP2;P2;SDS_P1;SDS_P2;PMS_P1;PMS_P2;Temp;Humidity;BMP_temperature;BMP_pressure;BME280_temperature;BME280_humidity;BME280_pressure;Samples;Min_cycle;Max_cycle;Signal;HPM_P1;HPM_P2
2023/10/16 00:00:47;;;;;;;9.07;5.90;;;7.20;99.90;;;;;;5051585;28;20173;-73
2023/10/16 00:03:14;;;;;;;9.57;6.43;;;7.30;99.90;;;;;;5051529;28;20200;-74
2023/10/16 00:05:51;;;;;;;8.97;6.23;;;7.30;99.90;;;;;;5051165;28;20177;-73
2023/10/16 00:08:18;;;;;;;11.70;6.53;;;7.30;99.90;;;;;;5051668;28;20232;-74
2023/10/16 00:10:57;;;;;;;10.80;6.97;;;7.20;99.90;;;;;;5051553;28;20169;-73
2023/10/16 00:13:28;;;;;;;9.30;6.60;;;7.30;99.90;;;;;;5051583;28;20309;-73
2023/10/16 00:15:59;;;;;;;14.27;6.90;;;7.30;99.90;;;;;;5051426;28;20165;-73
2023/10/16 00:18:26;;;;;;;11.87;6.60;;;7.20;99.90;;;;;;5051341;28;20177;-72
2023/10/16 00:20:55;;;;;;;11.67;7.27;;;7.20;99.90;;;;;;5051019;28;20714;-73
2023/10/16 00:23:30;;;;;;;18.10;7.47;;;7.20;99.90;;;;;;5050996;28;20220;-73
2023/10/16 00:25:56;;;;;;;12.03;7.10;;;7.20;99.90;;;;;;5051495;28;20177;-72
2023/10/16 00:28:22;;;;;;;10.30;6.80;;;7.20;99.90;;;;;;5072262;28;20208;-73
2023/10/16 00:30:49;;;;;;;12.43;7.10;;;7.20;99.90;;;;;;5073305;28;20697;-73
2023/10/16 00:33:14;;;;;;;9.87;7.00;;;7.10;99.90;;;;;;5073163;28;20180;-73
2023/10/16 00:35:53;;;;;;;12.87;6.90;;;7.10;99.90;;;;;;5073115;28;20230;-74
2023/10/16 00:38:22;;;;;;;11.67;6.87;;;7.10;99.90;;;;;;5073292;28;20267;-73
2023/10/16 00:43:33;;;;;;;10.70;7.00;;;7.20;99.90;;;;;;5073397;28;20694;-74
2023/10/16 00:46:06;;;;;;;12.13;7.40;;;7.10;99.90;;;;;;5073202;28;20169;-73
2023/10/16 00:48:36;;;;;;;12.47;6.93;;;7.10;99.90;;;;;;5072884;28;20208;-74
2023/10/16 00:51:07;;;;;;;9.87;6.63;;;7.10;99.90;;;;;;5073192;28;20199;-73
2023/10/16 00:53:34;;;;;;;13.90;7.70;;;7.10;99.90;;;;;;5073079;28;20220;-74
2023/10/16 00:56:02;;;;;;;9.27;6.97;;;7.10;99.90;;;;;;5073192;28;20222;-74
2023/10/16 00:58:29;;;;;;;12.13;6.93;;;7.10;99.90;;;;;;5074891;28;20181;-73
2023/10/16 01:00:58;;;;;;;10.90;6.90;;;7.10;99.90;;;;;;5077247;28;20670;-74
2023/10/16 01:03:26;;;;;;;20.33;15.33;;;7.10;99.90;;;;;;5076844;28;20196;-74
2023/10/16 01:05:52;;;;;;;17.27;9.80;;;7.10;99.90;;;;;;5076939;28;20196;-72
2023/10/16 01:08:18;;;;;;;13.90;8.53;;;7.10;99.90;;;;;;5077033;28;20204;-74
2023/10/16 01:10:48;;;;;;;12.43;8.33;;;7.10;99.90;;;;;;5076966;28;20523;-74
2023/10/16 01:13:16;;;;;;;13.23;9.70;;;7.00;99.90;;;;;;5077020;28;20263;-74
2023/10/16 01:15:50;;;;;;;13.40;8.70;;;7.00;99.90;;;;;;5076903;28;20173;-74
2023/10/16 01:18:17;;;;;;;14.10;11.17;;;7.10;99.90;;;;;;5076582;28;20198;-73
2023/10/16 01:20:48;;;;;;;14.57;9.17;;;7.10;99.90;;;;;;5076814;28;20168;-73
2023/10/16 01:23:15;;;;;;;11.27;7.60;;;7.00;99.90;;;;;;5076499;28;20245;-73
2023/10/16 01:25:41;;;;;;;15.90;8.60;;;7.00;99.90;;;;;;5076817;28;20242;-73
2023/10/16 01:28:07;;;;;;;12.20;7.50;;;6.90;99.90;;;;;;5076573;28;20667;-72
2023/10/16 01:30:34;;;;;;;12.80;7.50;;;6.90;99.90;;;;;;5076505;28;20247;-72
2023/10/16 01:33:00;;;;;;;10.30;7.60;;;7.00;99.90;;;;;;5076255;28;20255;-74
2023/10/16 01:35:25;;;;;;;9.50;6.73;;;7.00;99.90;;;;;;5076635;28;20200;-74
2023/10/16 01:37:53;;;;;;;11.47;7.30;;;7.00;99.90;;;;;;5076455;28;20530;-74
2023/10/16 01:42:44;;;;;;;13.33;7.47;;;7.00;99.90;;;;;;5076609;28;20883;-73
2023/10/16 01:45:12;;;;;;;12.40;6.93;;;7.00;99.90;;;;;;5076333;28;20177;-73
2023/10/16 01:47:37;;;;;;;12.27;7.30;;;7.00;99.90;;;;;;5075699;28;20184;-73
2023/10/16 01:50:05;;;;;;;11.43;6.80;;;6.90;99.90;;;;;;5076132;28;20183;-74
2023/10/16 01:52:34;;;;;;;11.27;6.87;;;6.90;99.90;;;;;;5076294;28;20187;-73
2023/10/16 01:54:59;;;;;;;13.67;7.03;;;6.90;99.90;;;;;;5076068;28;20184;-74
2023/10/16 01:57:26;;;;;;;13.67;7.17;;;6.90;99.90;;;;;;5076090;28;20173;-74
2023/10/16 01:59:52;;;;;;;11.00;6.90;;;6.80;99.90;;;;;;5076099;28;20214;-74
2023/10/16 02:02:18;;;;;;;12.23;7.23;;;6.80;99.90;;;;;;5075589;28;20271;-74
2023/10/16 02:04:44;;;;;;;16.73;7.50;;;6.80;99.90;;;;;;5076022;28;20183;-73
2023/10/16 02:07:10;;;;;;;12.90;7.47;;;6.80;99.90;;;;;;5075870;28;20615;-73
2023/10/16 02:09:38;;;;;;;10.10;7.23;;;6.80;99.90;;;;;;5074517;28;20244;-73
2023/10/16 02:12:10;;;;;;;9.67;6.33;;;6.80;99.90;;;;;;5075824;28;20173;-74
2023/10/16 02:14:39;;;;;;;9.43;7.07;;;6.70;99.90;;;;;;5074478;28;20187;-72
2023/10/16 02:17:10;;;;;;;13.77;7.10;;;6.70;99.90;;;;;;5075556;28;20214;-73
2023/10/16 02:19:36;;;;;;;11.10;7.20;;;6.70;99.90;;;;;;5075551;28;20700;-74
2023/10/16 02:22:03;;;;;;;13.17;7.37;;;6.70;99.90;;;;;;5075414;28;20319;-74
2023/10/16 02:24:28;;;;;;;11.83;7.50;;;6.70;99.90;;;;;;5075639;28;20173;-73
2023/10/16 02:26:57;;;;;;;10.33;7.40;;;6.70;99.90;;;;;;5075569;28;20183;-73
2023/10/16 02:29:24;;;;;;;14.67;7.80;;;6.70;99.90;;;;;;5074918;28;20223;-74
2023/10/16 02:31:52;;;;;;;12.77;7.07;;;6.70;99.90;;;;;;5075420;28;20628;-73
2023/10/16 02:34:22;;;;;;;12.20;7.33;;;6.80;99.90;;;;;;5075366;28;20226;-73
2023/10/16 02:36:51;;;;;;;14.00;8.07;;;6.80;99.90;;;;;;5091465;28;20576;-73
2023/10/16 02:39:35;;;;;;;10.37;7.43;;;6.80;99.90;;;;;;5075153;28;20172;-73
2023/10/16 02:42:06;;;;;;;11.47;7.27;;;6.80;99.90;;;;;;5075465;28;20298;-73
2023/10/16 02:44:33;;;;;;;10.90;8.17;;;6.80;99.90;;;;;;5074970;28;20173;-73
2023/10/16 02:46:58;;;;;;;11.43;7.50;;;6.80;99.90;;;;;;5075290;28;20183;-72
2023/10/16 02:49:24;;;;;;;12.97;7.60;;;6.80;99.90;;;;;;5074975;28;20212;-73
2023/10/16 02:51:52;;;;;;;13.00;7.73;;;6.70;99.90;;;;;;5074924;28;20509;-73
2023/10/16 02:54:18;;;;;;;10.00;7.73;;;6.80;99.90;;;;;;5074759;28;20247;-73
2023/10/16 02:56:44;;;;;;;11.53;7.73;;;6.70;99.90;;;;;;5074970;28;20256;-72
2023/10/16 02:59:11;;;;;;;13.50;7.90;;;6.80;99.90;;;;;;5074753;28;20641;-73
2023/10/16 03:01:38;;;;;;;11.00;7.23;;;6.80;99.90;;;;;;5074814;28;20196;-73
2023/10/16 03:04:05;;;;;;;14.60;8.17;;;6.80;99.90;;;;;;5075119;28;20180;-73
2023/10/16 03:06:31;;;;;;;13.60;7.10;;;6.80;99.90;;;;;;5074734;28;20245;-72
2023/10/16 03:09:15;;;;;;;12.10;8.13;;;6.80;99.90;;;;;;5074228;28;20664;-72
2023/10/16 03:11:41;;;;;;;12.97;7.80;;;6.80;99.90;;;;;;5074779;28;20180;-72
2023/10/16 03:14:07;;;;;;;14.40;7.70;;;6.80;99.90;;;;;;5074214;28;20507;-74
2023/10/16 03:16:36;;;;;;;14.73;7.80;;;6.80;99.90;;;;;;5074544;28;20255;-73
2023/10/16 03:19:09;;;;;;;14.27;8.13;;;6.80;99.90;;;;;;5074292;28;20262;-73
2023/10/16 03:21:35;;;;;;;13.03;7.60;;;6.80;99.90;;;;;;5073770;28;20706;-73
2023/10/16 03:24:00;;;;;;;12.27;7.53;;;6.80;99.90;;;;;;5074215;28;20169;-73
2023/10/16 03:26:29;;;;;;;12.80;8.17;;;6.80;99.90;;;;;;5074176;28;20169;-73
2023/10/16 03:28:56;;;;;;;17.07;7.60;;;6.80;99.90;;;;;;5073926;28;20208;-72
2023/10/16 03:31:23;;;;;;;12.43;8.00;;;6.80;99.90;;;;;;5074131;28;20192;-73
2023/10/16 03:33:50;;;;;;;12.97;7.23;;;6.80;99.90;;;;;;5074007;28;20259;-72
2023/10/16 03:36:17;;;;;;;10.80;7.50;;;6.80;99.90;;;;;;5074083;28;20176;-73
2023/10/16 03:38:43;;;;;;;13.33;7.50;;;6.70;99.90;;;;;;5074051;28;20180;-73
2023/10/16 03:43:56;;;;;;;11.17;6.90;;;6.80;99.90;;;;;;5073397;28;20259;-73
2023/10/16 03:46:23;;;;;;;13.83;7.33;;;6.70;99.90;;;;;;5073855;28;20251;-73
2023/10/16 03:48:49;;;;;;;10.63;7.27;;;6.70;99.90;;;;;;5073405;28;20285;-72
2023/10/16 03:51:16;;;;;;;12.07;7.70;;;6.70;99.90;;;;;;5073546;28;20569;-73
2023/10/16 03:53:44;;;;;;;13.37;7.93;;;6.70;99.90;;;;;;5073529;28;20173;-72
2023/10/16 03:56:11;;;;;;;10.33;7.80;;;6.70;99.90;;;;;;5072394;28;20179;-73
2023/10/16 03:58:46;;;;;;;12.57;7.60;;;6.60;99.90;;;;;;5073133;28;20194;-73
2023/10/16 04:01:12;;;;;;;11.87;8.00;;;6.60;99.90;;;;;;5073486;28;20172;-73
2023/10/16 04:03:47;;;;;;;10.97;7.20;;;6.60;99.90;;;;;;5073355;28;20215;-73
2023/10/16 04:06:18;;;;;;;14.40;8.00;;;6.60;99.90;;;;;;5073378;28;20202;-73
2023/10/16 04:08:48;;;;;;;16.97;8.90;;;6.70;99.90;;;;;;5073001;28;20220;-73
2023/10/16 04:11:14;;;;;;;18.40;8.87;;;6.80;99.90;;;;;;5073040;28;20172;-73
2023/10/16 04:13:47;;;;;;;12.13;8.23;;;6.70;99.90;;;;;;5073133;28;20180;-73
2023/10/16 04:16:42;;;;;;;17.20;9.40;;;6.80;99.90;;;;;;5073168;28;20170;-73
2023/10/16 04:21:43;;;;;;;17.90;8.40;;;6.70;99.90;;;;;;5072930;28;20251;-73
2023/10/16 04:24:30;;;;;;;12.27;7.87;;;6.70;99.90;;;;;;5073164;28;20624;-73
2023/10/16 04:27:29;;;;;;;9.13;7.30;;;6.60;99.90;;;;;;5072719;28;20169;-72
2023/10/16 04:29:49;;;;;;;15.20;7.57;;;6.60;99.90;;;;;;5072589;28;20551;-74
2023/10/16 04:37:49;;;;;;;13.93;8.63;;;6.50;99.90;;;;;;5073427;28;20226;-72
2023/10/16 04:47:56;;;;;;;16.30;7.83;;;6.30;99.90;;;;;;5072586;28;20165;-73
2023/10/16 04:50:30;;;;;;;14.83;8.23;;;6.40;99.90;;;;;;5072585;28;20628;-73
2023/10/16 05:19:45;;;;;;;19.23;9.83;;;6.40;99.90;;;;;;5072475;28;20620;-73
2023/10/16 06:14:12;;;;;;;27.43;12.03;;;6.10;99.90;;;;;;5074942;28;20279;-74
2023/10/16 06:16:43;;;;;;;31.13;12.40;;;6.10;99.90;;;;;;5074980;28;20177;-73
2023/10/16 06:19:17;;;;;;;43.17;13.83;;;6.10;99.90;;;;;;5074465;28;20183;-74
2023/10/16 06:21:49;;;;;;;46.80;15.07;;;6.10;99.90;;;;;;5074194;28;20325;-75
2023/10/16 06:24:32;;;;;;;30.40;12.97;;;6.30;99.90;;;;;;5074192;28;20224;-74
2023/10/16 06:26:59;;;;;;;33.27;12.73;;;6.30;99.90;;;;;;5074026;28;20725;-74
2023/10/16 06:29:34;;;;;;;32.17;13.33;;;6.40;99.90;;;;;;5074110;28;20284;-73
2023/10/16 06:32:18;;;;;;;36.43;13.67;;;6.40;99.90;;;;;;5074297;28;20172;-73
2023/10/16 06:34:52;;;;;;;28.23;12.63;;;6.50;99.90;;;;;;5073567;28;20245;-73
2023/10/16 06:37:18;;;;;;;29.37;13.17;;;6.70;99.90;;;;;;5074103;28;20173;-74
2023/10/16 06:39:47;;;;;;;21.30;12.10;;;6.70;99.90;;;;;;5074016;28;20261;-74
2023/10/16 06:42:19;;;;;;;26.63;11.93;;;6.80;99.90;;;;;;5074306;28;20179;-72
2023/10/16 06:45:07;;;;;;;28.73;12.33;;;6.90;99.90;;;;;;5074346;28;20238;-73
2023/10/16 06:47:36;;;;;;;26.97;12.20;;;7.10;99.90;;;;;;5073901;28;20245;-72
2023/10/16 06:50:33;;;;;;;27.03;12.13;;;7.30;99.90;;;;;;5073601;28;20640;-73
2023/10/16 06:53:01;;;;;;;17.93;10.30;;;7.60;99.90;;;;;;5073728;28;20169;-74
2023/10/16 06:55:27;;;;;;;17.77;10.70;;;7.90;99.90;;;;;;5073297;28;20177;-73
2023/10/16 06:57:52;;;;;;;18.17;9.00;;;8.10;99.90;;;;;;5073956;28;20263;-72
2023/10/16 07:00:26;;;;;;;17.50;9.30;;;8.10;99.90;;;;;;5073561;28;20591;-73
2023/10/16 07:02:56;;;;;;;17.07;9.70;;;8.20;99.90;;;;;;5073827;28;20670;-72
2023/10/16 07:05:22;;;;;;;16.20;9.70;;;8.70;99.90;;;;;;5073743;28;20256;-73
2023/10/16 07:07:49;;;;;;;13.80;8.50;;;8.90;99.90;;;;;;5073392;28;20259;-73
2023/10/16 07:10:15;;;;;;;19.90;9.50;;;9.50;99.90;;;;;;5073355;28;20192;-74
2023/10/16 07:12:59;;;;;;;11.53;7.73;;;10.20;99.90;;;;;;5073463;28;20211;-73
2023/10/16 07:15:29;;;;;;;17.40;8.50;;;11.00;99.90;;;;;;5073609;28;20560;-72
2023/10/16 07:18:13;;;;;;;12.37;8.13;;;11.60;99.90;;;;;;5072398;28;20173;-72
2023/10/16 07:20:54;;;;;;;17.10;8.30;;;11.90;99.90;;;;;;5074703;28;20701;-72
2023/10/16 07:23:20;;;;;;;16.87;8.60;;;12.50;99.90;;;;;;5073275;28;20688;-71
2023/10/16 07:25:54;;;;;;;19.03;8.27;;;13.50;99.90;;;;;;5069931;28;20535;-70
2023/10/16 07:28:21;;;;;;;18.33;8.30;;;14.30;99.90;;;;;;5071766;28;20216;-71
2023/10/16 07:30:47;;;;;;;16.90;8.70;;;14.80;99.90;;;;;;5073886;28;20188;-71
2023/10/16 07:33:16;;;;;;;22.47;8.23;;;14.90;99.90;;;;;;5077075;28;20616;-73
2023/10/16 07:35:45;;;;;;;13.40;8.27;;;15.10;99.90;;;;;;5078621;28;20176;-73
2023/10/16 07:38:12;;;;;;;14.63;8.27;;;15.00;99.90;;;;;;5092949;28;20222;-73
2023/10/16 07:40:38;;;;;;;18.73;8.50;;;14.80;99.90;;;;;;5089847;28;20179;-74
2023/10/16 07:43:05;;;;;;;20.33;8.03;;;14.80;99.90;;;;;;5077249;28;20180;-72
2023/10/16 07:45:32;;;;;;;18.93;8.60;;;14.60;99.90;;;;;;5081582;28;20558;-72
2023/10/16 07:48:07;;;;;;;15.23;8.83;;;14.60;99.90;;;;;;5084526;28;20211;-72
2023/10/16 07:50:38;;;;;;;18.30;8.47;;;15.00;99.90;;;;;;5079114;28;20184;-72
2023/10/16 07:53:07;;;;;;;16.00;8.83;;;15.60;99.90;;;;;;5072585;28;20184;-73
2023/10/16 07:55:39;;;;;;;15.93;8.47;;;15.80;99.90;;;;;;5073381;28;20635;-73
2023/10/16 07:58:15;;;;;;;20.80;8.40;;;16.40;99.80;;;;;;5083102;28;20179;-73
2023/10/16 08:01:17;;;;;;;18.27;8.60;;;16.40;99.10;;;;;;5080441;28;20190;-75
2023/10/16 08:03:36;;;;;;;15.40;8.50;;;15.90;99.70;;;;;;5077375;28;20196;-74
2023/10/16 08:06:05;;;;;;;18.15;9.40;;;16.30;99.20;;;;;;5077398;28;20173;-73
2023/10/16 08:08:37;;;;;;;18.30;10.15;;;16.40;99.10;;;;;;5093979;28;20206;-73
2023/10/16 08:11:13;;;;;;;16.50;9.48;;;17.10;98.00;;;;;;5091744;28;20168;-74
2023/10/16 08:13:48;;;;;;;21.83;9.73;;;17.50;96.80;;;;;;5090653;28;20213;-73
2023/10/16 08:16:21;;;;;;;25.40;10.35;;;17.30;96.70;;;;;;5071753;28;20188;-73
2023/10/16 08:18:52;;;;;;;14.57;9.55;;;18.10;95.50;;;;;;5071328;28;20172;-73
2023/10/16 08:21:25;;;;;;;21.35;10.23;;;18.20;94.40;;;;;;5072099;28;20712;-73
2023/10/16 08:23:59;;;;;;;23.25;10.00;;;17.80;94.80;;;;;;5072000;28;20176;-74
2023/10/16 08:26:30;;;;;;;20.30;10.05;;;18.10;94.60;;;;;;5072126;28;20168;-72
2023/10/16 08:29:18;;;;;;;19.73;10.10;;;18.10;94.20;;;;;;5072236;28;20295;-72
2023/10/16 08:32:43;;;;;;;17.15;8.50;;;17.70;95.40;;;;;;5072645;28;20195;-72
2023/10/16 08:34:50;;;;;;;17.25;8.55;;;18.00;94.90;;;;;;5072952;28;20180;-72
2023/10/16 08:37:17;;;;;;;16.38;8.98;;;18.20;94.30;;;;;;5072480;28;20497;-72
2023/10/16 08:39:48;;;;;;;9.73;6.68;;;18.20;94.90;;;;;;5071868;28;20168;-72
2023/10/16 08:42:20;;;;;;;9.45;5.63;;;18.60;91.90;;;;;;5070485;28;20229;-72
2023/10/16 08:47:46;;;;;;;11.20;5.93;;;18.50;92.20;;;;;;5054962;28;20276;-72
2023/10/16 08:50:17;;;;;;;10.98;5.13;;;19.20;90.20;;;;;;5050331;28;20173;-72
2023/10/16 08:52:58;;;;;;;10.98;5.60;;;18.30;88.50;;;;;;5069734;28;20179;-74
2023/10/16 08:55:26;;;;;;;7.25;4.70;;;18.10;91.90;;;;;;5069486;28;20172;-73
2023/10/16 08:57:52;;;;;;;13.25;6.05;;;18.10;91.00;;;;;;5059123;28;20658;-72
2023/10/16 09:00:22;;;;;;;10.70;5.88;;;18.00;92.00;;;;;;5069634;28;20180;-73
2023/10/16 09:02:53;;;;;;;11.35;5.03;;;17.90;92.20;;;;;;5065219;28;20188;-73
2023/10/16 09:05:20;;;;;;;15.80;5.28;;;18.00;92.40;;;;;;5050615;28;20201;-73
2023/10/16 09:07:48;;;;;;;9.80;4.30;;;18.50;90.60;;;;;;5066719;28;20176;-72
2023/10/16 09:10:15;;;;;;;5.50;2.72;;;18.90;86.40;;;;;;5069645;28;20189;-72
2023/10/16 09:12:54;;;;;;;8.60;4.00;;;18.40;84.10;;;;;;5065321;28;20165;-73
2023/10/16 09:15:24;;;;;;;7.68;4.80;;;17.40;90.80;;;;;;5069626;28;20176;-73
2023/10/16 09:17:51;;;;;;;5.22;3.40;;;17.20;92.40;;;;;;5069116;28;20636;-73
2023/10/16 09:20:18;;;;;;;7.78;3.72;;;17.40;91.70;;;;;;5072976;28;20259;-72
2023/10/16 09:22:46;;;;;;;6.60;2.90;;;17.90;90.80;;;;;;5068664;28;20397;-72
2023/10/16 09:25:15;;;;;;;6.75;2.70;;;17.90;86.60;;;;;;5082529;28;20225;-72
2023/10/16 09:27:42;;;;;;;8.25;2.60;;;17.00;90.00;;;;;;5096436;28;20203;-73
2023/10/16 09:30:18;;;;;;;10.65;3.00;;;16.80;91.80;;;;;;5084260;28;20180;-72
2023/10/16 09:32:44;;;;;;;5.78;2.75;;;16.60;92.00;;;;;;5073577;28;20259;-73
2023/10/16 09:35:14;;;;;;;7.55;2.38;;;17.20;92.00;;;;;;5075869;28;20255;-73
2023/10/16 09:37:40;;;;;;;5.68;2.85;;;17.30;91.90;;;;;;5095883;28;20542;-73
2023/10/16 09:42:56;;;;;;;8.55;3.05;;;17.90;91.10;;;;;;5075590;28;20175;-72
2023/10/16 09:45:35;;;;;;;6.75;2.60;;;18.60;86.80;;;;;;5075216;28;20268;-73
2023/10/16 09:48:19;;;;;;;6.63;2.92;;;18.20;86.40;;;;;;5075218;28;20321;-72
2023/10/16 09:50:45;;;;;;;5.72;3.15;;;18.40;87.20;;;;;;5075227;28;20248;-73
2023/10/16 09:53:13;;;;;;;7.75;2.90;;;18.50;87.30;;;;;;5075539;28;20695;-74
2023/10/16 09:55:44;;;;;;;4.00;2.40;;;19.00;83.90;;;;;;5075250;28;20624;-74
2023/10/16 09:58:11;;;;;;;6.47;2.38;;;18.80;79.00;;;;;;5075041;28;20165;-73
2023/10/16 10:00:46;;;;;;;7.55;2.85;;;17.50;83.70;;;;;;5074623;28;20245;-73
2023/10/16 10:03:14;;;;;;;7.85;2.33;;;17.50;86.40;;;;;;5075228;28;20200;-71
2023/10/16 10:06:34;;;;;;;5.40;2.63;;;17.70;86.50;;;;;;5074935;28;20635;-73
2023/10/16 10:11:39;;;;;;;4.72;1.83;;;17.50;85.30;;;;;;5074795;28;20177;-73
2023/10/16 10:16:58;;;;;;;3.47;1.98;;;16.00;88.10;;;;;;5075282;28;20180;-72
2023/10/16 10:19:31;;;;;;;2.97;1.98;;;15.40;91.60;;;;;;5074292;28;20169;-73
2023/10/16 10:22:05;;;;;;;4.73;1.87;;;15.20;93.30;;;;;;5074671;28;20342;-72
2023/10/16 10:24:31;;;;;;;4.65;2.55;;;15.00;96.00;;;;;;5074508;28;20529;-72
2023/10/16 10:27:02;;;;;;;4.23;1.63;;;15.30;96.70;;;;;;5074831;28;20184;-72
2023/10/16 10:29:29;;;;;;;4.22;1.58;;;15.80;94.00;;;;;;5073899;28;20216;-73
2023/10/16 10:32:05;;;;;;;4.30;1.73;;;15.80;92.90;;;;;;5069089;28;20176;-71
2023/10/16 10:34:31;;;;;;;3.38;1.42;;;15.80;93.30;;;;;;5075671;28;20547;-73
2023/10/16 10:37:00;;;;;;;4.60;1.67;;;16.10;92.70;;;;;;5077546;28;20242;-72
2023/10/16 10:41:55;;;;;;;2.85;1.40;;;16.20;91.80;;;;;;5079178;28;20543;-72
2023/10/16 10:44:37;;;;;;;2.37;1.43;;;15.90;92.40;;;;;;5079009;28;20180;-72
2023/10/16 10:47:17;;;;;;;2.85;1.15;;;15.40;93.10;;;;;;5074002;28;20249;-72
2023/10/16 10:49:43;;;;;;;6.68;2.05;;;15.20;93.80;;;;;;5080212;28;20222;-72
2023/10/16 10:52:12;;;;;;;4.57;1.90;;;15.40;94.00;;;;;;5074081;28;20172;-72
2023/10/16 10:54:44;;;;;;;2.33;1.60;;;15.00;95.80;;;;;;5080704;28;20187;-73
2023/10/16 10:57:18;;;;;;;3.67;1.30;;;14.90;95.50;;;;;;5074000;28;20516;-72
2023/10/16 11:00:22;;;;;;;3.77;1.50;;;14.60;95.40;;;;;;5076102;28;20683;-72
2023/10/16 11:02:52;;;;;;;4.60;1.80;;;14.50;96.20;;;;;;5075647;28;20192;-71
2023/10/16 11:05:23;;;;;;;2.23;1.10;;;15.00;95.90;;;;;;5080159;28;20273;-72
2023/10/16 11:10:42;;;;;;;3.50;1.10;;;14.70;93.30;;;;;;5081830;28;20195;-73
2023/10/16 11:13:09;;;;;;;4.17;1.77;;;14.70;92.40;;;;;;5072971;28;20176;-73
2023/10/16 11:15:35;;;;;;;1.30;1.10;;;14.90;93.30;;;;;;5076218;28;20236;-72
2023/10/16 11:18:11;;;;;;;4.57;1.60;;;14.60;92.40;;;;;;5082697;28;20196;-73
2023/10/16 11:20:37;;;;;;;4.10;2.00;;;14.40;95.20;;;;;;5073202;28;20182;-73
2023/10/16 11:23:12;;;;;;;3.37;1.87;;;14.50;95.00;;;;;;5072704;28;20224;-72
2023/10/16 11:25:52;;;;;;;3.20;1.70;;;14.40;93.40;;;;;;5074033;28;20183;-73
2023/10/16 11:28:35;;;;;;;2.80;2.23;;;14.20;94.60;;;;;;5072938;28;20349;-72
2023/10/16 11:31:04;;;;;;;3.73;1.53;;;14.10;95.50;;;;;;5079150;28;20180;-73
2023/10/16 11:34:00;;;;;;;5.57;3.00;;;13.90;96.10;;;;;;5081258;28;20223;-74
2023/10/16 11:36:34;;;;;;;4.17;1.77;;;13.80;94.60;;;;;;5092525;28;20174;-73
2023/10/16 11:39:06;;;;;;;4.93;1.60;;;13.90;95.70;;;;;;5093597;28;20181;-73
2023/10/16 11:41:33;;;;;;;4.20;2.97;;;14.10;96.00;;;;;;5085082;28;20184;-73
2023/10/16 11:44:12;;;;;;;3.87;1.70;;;14.00;96.20;;;;;;5080796;28;20267;-73
2023/10/16 11:46:45;;;;;;;4.93;2.20;;;14.30;97.40;;;;;;5075315;28;20234;-73
2023/10/16 11:52:20;;;;;;;4.40;1.63;;;14.30;97.70;;;;;;5039355;28;20182;-73
2023/10/16 11:54:48;;;;;;;5.20;2.10;;;14.40;97.30;;;;;;5048875;28;20196;-74
2023/10/16 11:57:14;;;;;;;5.43;1.60;;;13.90;98.30;;;;;;5044006;28;20705;-72
2023/10/16 11:59:40;;;;;;;6.23;2.83;;;14.10;98.10;;;;;;5040280;28;20181;-74
2023/10/16 12:02:12;;;;;;;7.00;1.70;;;14.40;98.20;;;;;;5034061;28;20220;-72
2023/10/16 12:04:40;;;;;;;3.00;1.80;;;14.40;97.70;;;;;;5030393;28;20213;-72
2023/10/16 12:07:07;;;;;;;5.67;1.90;;;14.20;97.10;;;;;;5043507;28;20185;-73
2023/10/16 12:09:42;;;;;;;4.23;1.80;;;14.50;97.70;;;;;;5040917;28;20248;-73
2023/10/16 12:12:17;;;;;;;2.30;1.30;;;14.30;96.00;;;;;;5035654;28;20203;-73
2023/10/16 12:14:42;;;;;;;3.77;1.27;;;14.40;97.00;;;;;;5048001;28;20193;-74
2023/10/16 12:17:11;;;;;;;2.13;1.60;;;14.20;97.50;;;;;;5046146;28;20680;-73
2023/10/16 12:19:37;;;;;;;4.33;1.67;;;14.20;98.10;;;;;;5044578;28;20181;-74
2023/10/16 12:22:03;;;;;;;5.07;1.83;;;14.00;99.00;;;;;;5038044;28;20355;-73
2023/10/16 12:24:29;;;;;;;4.40;1.70;;;13.70;99.60;;;;;;5050077;28;20264;-73
2023/10/16 12:26:55;;;;;;;4.27;1.60;;;13.60;99.90;;;;;;5048440;28;20315;-73
2023/10/16 12:29:21;;;;;;;2.63;1.33;;;13.60;99.90;;;;;;5073131;28;20639;-74
2023/10/16 12:31:48;;;;;;;5.00;1.90;;;13.50;99.90;;;;;;5078932;28;20187;-74
2023/10/16 12:34:16;;;;;;;10.17;4.20;;;13.50;99.90;;;;;;5071226;28;20215;-74
2023/10/16 12:36:43;;;;;;;9.03;4.37;;;13.70;99.90;;;;;;5072377;28;20176;-74
2023/10/16 12:39:17;;;;;;;4.50;2.87;;;13.70;99.90;;;;;;5070348;28;20725;-74
2023/10/16 12:41:44;;;;;;;4.60;2.40;;;13.70;99.90;;;;;;5075346;28;20179;-73
2023/10/16 12:44:10;;;;;;;5.87;2.10;;;13.70;99.90;;;;;;5072295;28;20177;-74
2023/10/16 12:46:42;;;;;;;5.60;2.10;;;13.40;99.90;;;;;;5072025;28;20639;-73
2023/10/16 12:49:07;;;;;;;4.97;1.90;;;13.50;99.90;;;;;;5077488;28;20226;-74
2023/10/16 12:51:34;;;;;;;4.07;2.33;;;13.50;99.90;;;;;;5077493;28;20521;-74
2023/10/16 12:54:03;;;;;;;5.17;3.07;;;13.40;99.90;;;;;;5090552;28;20210;-73
2023/10/16 12:56:33;;;;;;;6.43;2.97;;;13.10;99.90;;;;;;5073485;28;20349;-72
2023/10/16 12:59:03;;;;;;;7.27;3.20;;;13.30;99.90;;;;;;5073692;28;20676;-73
2023/10/16 13:01:29;;;;;;;6.43;3.50;;;13.30;99.90;;;;;;5071764;28;20173;-72
2023/10/16 13:03:59;;;;;;;7.40;4.57;;;13.50;99.90;;;;;;5068090;28;20208;-74
2023/10/16 13:06:28;;;;;;;5.77;2.30;;;13.50;99.90;;;;;;5088134;28;20213;-74
2023/10/16 13:08:58;;;;;;;2.13;1.90;;;13.20;99.90;;;;;;5091576;28;20295;-72
2023/10/16 13:11:24;;;;;;;5.40;1.67;;;13.00;99.90;;;;;;5085808;28;20178;-73
2023/10/16 13:13:51;;;;;;;4.13;1.63;;;13.10;99.90;;;;;;5091621;28;20172;-72
2023/10/16 13:16:24;;;;;;;3.93;1.97;;;13.20;99.90;;;;;;5091921;28;20545;-74
2023/10/16 13:18:59;;;;;;;5.07;1.73;;;13.30;99.90;;;;;;5091557;28;20183;-73
2023/10/16 13:21:33;;;;;;;1.97;1.70;;;13.50;99.90;;;;;;5076121;28;20228;-74
2023/10/16 13:24:06;;;;;;;3.83;1.80;;;13.60;99.90;;;;;;5070965;28;20188;-73
2023/10/16 13:26:36;;;;;;;4.43;2.33;;;13.60;99.90;;;;;;5070896;28;20184;-74
2023/10/16 13:29:08;;;;;;;3.77;2.37;;;13.40;99.90;;;;;;5072020;28;20216;-73
2023/10/16 13:31:46;;;;;;;2.57;1.80;;;13.30;99.90;;;;;;5071273;28;20165;-73
2023/10/16 13:34:17;;;;;;;3.67;1.63;;;13.20;99.90;;;;;;5073068;28;20271;-73
2023/10/16 13:37:18;;;;;;;3.57;1.67;;;13.00;99.90;;;;;;5069406;28;20172;-73
2023/10/16 13:39:39;;;;;;;4.77;2.03;;;12.90;99.90;;;;;;5086165;28;20252;-73
2023/10/16 13:42:08;;;;;;;3.57;2.13;;;12.90;99.90;;;;;;5070597;28;20216;-73
2023/10/16 13:44:35;;;;;;;3.63;1.60;;;12.70;99.90;;;;;;5075258;28;20177;-73
2023/10/16 13:47:05;;;;;;;4.03;1.80;;;12.70;99.90;;;;;;5083941;28;20265;-74
2023/10/16 13:49:37;;;;;;;5.17;1.90;;;12.70;99.90;;;;;;5074426;28;20212;-73
2023/10/16 13:52:07;;;;;;;4.40;2.10;;;12.70;99.90;;;;;;5071594;28;20196;-71
2023/10/16 13:54:50;;;;;;;5.07;1.80;;;12.70;99.90;;;;;;5070565;28;20172;-73
2023/10/16 13:57:15;;;;;;;2.90;1.90;;;12.80;99.90;;;;;;5077690;28;20269;-72
2023/10/16 13:59:42;;;;;;;1.70;1.33;;;12.90;99.90;;;;;;5073657;28;20660;-73
2023/10/16 14:02:08;;;;;;;4.63;1.63;;;12.90;99.90;;;;;;5091298;28;20188;-73
2023/10/16 14:04:33;;;;;;;6.60;2.43;;;13.10;99.90;;;;;;5091487;28;20260;-73
2023/10/16 14:06:59;;;;;;;6.17;3.20;;;12.90;99.90;;;;;;5087090;28;20207;-73
2023/10/16 14:09:28;;;;;;;4.43;2.40;;;13.10;99.90;;;;;;5077199;28;20224;-74
2023/10/16 14:11:59;;;;;;;9.23;1.97;;;13.00;99.90;;;;;;5075630;28;20335;-73
2023/10/16 14:14:29;;;;;;;7.73;2.47;;;12.90;99.90;;;;;;5082092;28;20184;-73
2023/10/16 14:17:03;;;;;;;4.03;1.80;;;12.90;99.90;;;;;;5089542;28;20189;-74
2023/10/16 14:19:30;;;;;;;3.50;1.40;;;12.80;99.90;;;;;;5080086;28;20714;-73
2023/10/16 14:22:01;;;;;;;4.37;2.27;;;12.80;99.90;;;;;;5082023;28;20266;-72
2023/10/16 14:24:27;;;;;;;2.47;1.60;;;12.80;99.90;;;;;;5086322;28;20175;-72
2023/10/16 14:26:57;;;;;;;3.83;2.70;;;12.70;99.90;;;;;;5080607;28;20685;-72
2023/10/16 14:29:24;;;;;;;5.33;1.87;;;12.70;99.90;;;;;;5077044;28;20554;-72
2023/10/16 14:31:51;;;;;;;4.10;2.57;;;12.90;99.90;;;;;;5083285;28;20200;-73
2023/10/16 14:34:23;;;;;;;2.70;1.33;;;12.80;99.90;;;;;;5088695;28;20195;-74
2023/10/16 14:36:52;;;;;;;4.27;2.30;;;12.60;99.90;;;;;;5094364;28;20176;-74
2023/10/16 14:39:19;;;;;;;5.10;2.60;;;12.70;99.90;;;;;;5076551;28;20184;-74
2023/10/16 14:41:45;;;;;;;3.77;1.60;;;12.70;99.90;;;;;;5074252;28;20653;-73
2023/10/16 14:44:11;;;;;;;2.90;1.40;;;12.90;99.90;;;;;;5073443;28;20317;-73
2023/10/16 14:46:38;;;;;;;4.50;2.77;;;12.90;99.90;;;;;;5085939;28;20611;-71
2023/10/16 14:49:08;;;;;;;8.97;2.33;;;12.80;99.90;;;;;;5073792;28;20220;-73
2023/10/16 14:51:34;;;;;;;3.40;2.30;;;12.70;99.90;;;;;;5073339;28;20230;-72
2023/10/16 14:54:00;;;;;;;3.73;1.30;;;12.80;99.90;;;;;;5074411;28;20177;-73
2023/10/16 14:56:26;;;;;;;3.27;1.67;;;12.70;99.90;;;;;;5073988;28;20180;-74
2023/10/16 14:58:51;;;;;;;3.00;1.77;;;12.70;99.90;;;;;;5073884;28;20679;-73
2023/10/16 15:01:19;;;;;;;3.70;1.60;;;12.60;99.90;;;;;;5073582;28;20172;-73
2023/10/16 15:03:47;;;;;;;3.43;1.80;;;12.60;99.90;;;;;;5073645;28;20208;-74